Bookmark and Share
Track history (hours):
 

Tenjinmaru No11

Last reported at 2014-Apr-16 17:17 UTC. Time now 2014-Apr-17 03:56 UTC.
Position N 34°05' E 134°49'.

Length 75 m; draft 4.2 m.

Type: Cargo ship. MMSI: 431003485.

NotesDate/timePositionNaut miles runAvg speedWind from/ knotsBaromVisibWave heightAir tempDewpointWater temp
2014-Apr-16 17:17N 34°05' E 134°49'  
2014-Apr-10 06:32N 34°37' E 134°58'10 9.8
2014-Apr-10 05:33N 34°38' E 135°10'3 2.9
2014-Apr-10 04:33N 34°41' E 135°12'0 0.0
2014-Apr-10 03:33N 34°41' E 135°12'0 0.4
2014-Apr-10 02:33N 34°40' E 135°12'0 0.4
2014-Apr-10 01:33N 34°40' E 135°12'0 0.0
2014-Apr-10 00:33N 34°40' E 135°12'7 6.7
2014-Apr-09 23:33N 34°37' E 135°19'7 6.4
2014-Apr-09 22:31N 34°35' E 135°27'0 0.0
2014-Apr-09 21:33N 34°35' E 135°27'0 0.0
2014-Apr-09 20:32N 34°35' E 135°27'0 0.0
2014-Apr-09 18:33N 34°35' E 135°27'0 0.0
2014-Apr-09 17:31N 34°35' E 135°27'0 0.0
2014-Apr-09 16:33N 34°35' E 135°27'0 0.1
2014-Apr-09 15:33N 34°35' E 135°27'1 0.2
2014-Apr-09 11:18N 34°34' E 135°27'2 0.2
2014-Apr-09 04:33N 34°35' E 135°28'0 0.0
2014-Apr-09 01:13N 34°35' E 135°28'1 1.8
2014-Apr-09 00:33N 34°34' E 135°27'0 0.0
2014-Apr-08 23:33N 34°34' E 135°27'0 0.0
2014-Apr-08 22:32N 34°34' E 135°27'2 1.7
2014-Apr-08 21:33N 34°36' E 135°25'1110.8
2014-Apr-08 20:33N 34°35' E 135°12'1010.1
2014-Apr-08 19:33N 34°37' E 135°00'1 0.0
2014-Apr-07 11:04N 34°37' E 135°02'5 9.4
2014-Apr-07 10:32N 34°35' E 135°07'1111.3
2014-Apr-07 09:33N 34°33' E 135°20'4 3.4
2014-Apr-07 08:30N 34°31' E 135°24'0 0.2
2014-Apr-07 07:33N 34°31' E 135°24'9 9.0
2014-Apr-07 06:33N 34°40' E 135°26'1 0.4
2014-Apr-07 04:33N 34°40' E 135°27'0 0.0
2014-Apr-07 03:33N 34°40' E 135°27'0 0.0
2014-Apr-07 02:33N 34°40' E 135°27'0 0.0
2014-Apr-07 01:33N 34°40' E 135°27'0 0.0
2014-Apr-07 00:33N 34°40' E 135°27'0 0.0
2014-Apr-06 23:33N 34°40' E 135°27'5 4.9
2014-Apr-06 22:33N 34°37' E 135°22'0 0.2
2014-Apr-06 21:33N 34°37' E 135°22'0 0.0
2014-Apr-06 20:33N 34°37' E 135°22'0 0.1
2014-Apr-06 19:33N 34°37' E 135°22'0 0.0
2014-Apr-06 18:33N 34°37' E 135°22'0 0.0
2014-Apr-06 17:33N 34°37' E 135°22'  

Dump ship's entire track history

sailing weather and tide predictions

Tenjinmaru No11 — JD3353 — position and weather